Time;durP1;ratioP1;P1;durP2;ratioP2;P2;SDS_P1;SDS_P2;PMS_P1;PMS_P2;Temp;Humidity;BMP_temperature;BMP_pressure;BME280_temperature;BME280_humidity;BME280_pressure;Samples;Min_cycle;Max_cycle;Signal;HPM_P1;HPM_P2
2023/03/21 00:01:42;;;;;;;21.23;14.25;;;;;;;6.16;100.00;100950.78;5060181;28;21121;-74
2023/03/21 00:04:07;;;;;;;20.35;15.85;;;;;;;6.14;100.00;100946.69;5060446;28;20123;-74
2023/03/21 00:06:33;;;;;;;22.98;15.52;;;;;;;6.12;100.00;100935.59;5064784;28;20032;-74
2023/03/21 00:08:58;;;;;;;25.48;16.70;;;;;;;6.14;100.00;100939.75;5063666;28;20119;-74
2023/03/21 00:11:23;;;;;;;29.25;17.00;;;;;;;6.16;100.00;100937.03;5063187;28;20074;-74
2023/03/21 00:13:49;;;;;;;30.65;20.25;;;;;;;6.20;100.00;100934.13;5059757;28;20040;-73
2023/03/21 00:16:17;;;;;;;28.50;18.73;;;;;;;6.26;100.00;100927.69;5062751;28;20028;-74
2023/03/21 00:18:45;;;;;;;31.80;20.25;;;;;;;6.30;100.00;100935.16;5058883;28;20064;-73
2023/03/21 00:21:16;;;;;;;28.08;19.35;;;;;;;6.29;100.00;100928.31;5059088;28;20043;-74
2023/03/21 00:23:42;;;;;;;29.58;19.10;;;;;;;6.28;100.00;100925.84;5062411;28;20044;-75
2023/03/21 00:26:08;;;;;;;23.63;18.27;;;;;;;6.27;100.00;100927.59;5057630;28;20371;-74
2023/03/21 00:28:36;;;;;;;23.90;18.17;;;;;;;6.33;100.00;100927.19;5058458;28;20051;-74
2023/03/21 00:31:02;;;;;;;25.08;17.27;;;;;;;6.38;100.00;100919.09;5054429;28;20457;-74
2023/03/21 00:33:28;;;;;;;25.20;17.55;;;;;;;6.39;100.00;100919.94;5058757;28;20033;-74
2023/03/21 00:35:54;;;;;;;27.17;17.58;;;;;;;6.35;100.00;100913.31;5061281;28;20033;-74
2023/03/21 00:38:21;;;;;;;23.23;17.73;;;;;;;6.31;100.00;100910.09;5061299;28;20033;-74
2023/03/21 00:40:48;;;;;;;22.40;17.67;;;;;;;6.43;100.00;100914.44;5059703;28;20032;-74
2023/03/21 00:43:16;;;;;;;23.38;16.42;;;;;;;6.42;100.00;100907.59;5057995;28;20102;-74
2023/03/21 00:45:42;;;;;;;23.20;15.65;;;;;;;6.41;100.00;100910.28;5062121;28;20029;-74
2023/03/21 00:48:08;;;;;;;22.67;15.57;;;;;;;6.38;100.00;100908.75;5059724;28;20397;-74
2023/03/21 00:50:33;;;;;;;23.95;15.73;;;;;;;6.39;100.00;100912.97;5058017;28;20097;-74
2023/03/21 00:52:59;;;;;;;23.70;16.10;;;;;;;6.44;100.00;100905.72;5060713;28;20753;-74
2023/03/21 00:55:24;;;;;;;23.45;16.45;;;;;;;6.36;100.00;100902.84;5058068;28;20808;-74
2023/03/21 00:57:50;;;;;;;21.30;15.43;;;;;;;6.28;100.00;100898.19;5061132;28;20032;-74
2023/03/21 01:00:18;;;;;;;20.92;15.27;;;;;;;6.32;100.00;100897.06;5054829;28;20043;-74
2023/03/21 01:02:56;;;;;;;19.65;15.02;;;;;;;6.30;100.00;100895.50;5060303;28;20029;-74
2023/03/21 01:06:00;;;;;;;19.85;16.08;;;;;;;6.23;100.00;100892.50;5059286;28;20055;-74
2023/03/21 01:08:11;;;;;;;20.75;14.85;;;;;;;6.19;100.00;100891.06;5060325;28;20064;-74
2023/03/21 01:10:41;;;;;;;22.27;14.93;;;;;;;6.17;100.00;100889.53;5056698;28;20032;-74
2023/03/21 01:13:08;;;;;;;24.08;14.60;;;;;;;6.26;100.00;100881.13;5061031;28;20032;-75
2023/03/21 01:15:35;;;;;;;16.17;13.63;;;;;;;6.41;100.00;100881.81;5058620;28;20382;-74
2023/03/21 01:18:00;;;;;;;17.98;12.15;;;;;;;6.24;100.00;100870.88;5054708;28;20037;-74
2023/03/21 01:20:26;;;;;;;16.73;13.00;;;;;;;6.09;100.00;100874.56;5061251;28;20518;-73
2023/03/21 01:22:52;;;;;;;15.07;12.10;;;;;;;6.00;100.00;100870.00;5060558;28;20147;-74
2023/03/21 01:25:18;;;;;;;16.80;12.30;;;;;;;5.96;100.00;100868.56;5062102;28;21243;-74
2023/03/21 01:27:43;;;;;;;16.58;13.35;;;;;;;5.94;100.00;100870.41;5056967;28;20039;-75
2023/03/21 01:30:11;;;;;;;18.20;12.80;;;;;;;5.89;100.00;100872.50;5055918;28;20048;-74
2023/03/21 01:32:36;;;;;;;18.40;14.05;;;;;;;5.87;100.00;100872.56;5054181;28;20134;-74
2023/03/21 01:35:03;;;;;;;15.80;13.23;;;;;;;5.84;100.00;100859.84;5049590;28;20042;-73
2023/03/21 01:37:28;;;;;;;17.13;13.65;;;;;;;5.83;100.00;100862.53;5062348;28;20679;-74
2023/03/21 01:39:54;;;;;;;18.38;13.35;;;;;;;5.89;100.00;100856.97;5055996;28;20039;-73
2023/03/21 01:42:19;;;;;;;24.98;12.43;;;;;;;6.41;100.00;100854.19;5057850;28;20126;-74
2023/03/21 01:44:59;;;;;;;15.13;11.10;;;;;;;6.65;100.00;100846.41;5054906;28;20032;-74
2023/03/21 01:47:25;;;;;;;15.82;11.27;;;;;;;6.83;100.00;100847.69;5058642;28;20033;-74
2023/03/21 01:49:56;;;;;;;13.98;10.23;;;;;;;7.00;100.00;100841.28;5057569;28;20036;-74
2023/03/21 01:52:36;;;;;;;15.07;11.15;;;;;;;6.95;100.00;100840.78;5058273;28;20118;-73
2023/03/21 01:55:03;;;;;;;14.32;10.50;;;;;;;6.97;100.00;100836.31;5053569;28;20036;-74
2023/03/21 01:57:32;;;;;;;14.25;11.43;;;;;;;6.85;100.00;100839.81;5063935;28;20036;-74
2023/03/21 02:00:10;;;;;;;19.25;13.15;;;;;;;6.65;100.00;100841.22;5062653;28;20367;-74
2023/03/21 02:02:50;;;;;;;14.95;11.80;;;;;;;6.52;100.00;100837.88;5041527;28;20125;-74
2023/03/21 02:05:21;;;;;;;20.17;14.50;;;;;;;6.48;100.00;100831.28;5060248;28;20032;-75
2023/03/21 02:07:49;;;;;;;18.85;13.85;;;;;;;6.62;100.00;100839.69;5058308;28;20040;-74
2023/03/21 02:10:15;;;;;;;17.10;11.50;;;;;;;6.79;100.00;100838.47;5049367;28;20044;-74
2023/03/21 02:12:41;;;;;;;16.48;10.38;;;;;;;6.98;100.00;100830.22;5058792;28;20067;-74
2023/03/21 02:15:07;;;;;;;18.27;11.82;;;;;;;7.04;100.00;100819.41;5055362;28;20041;-74
2023/03/21 02:18:05;;;;;;;15.90;10.43;;;;;;;7.07;100.00;100826.13;5044259;28;20803;-74
2023/03/21 02:21:25;;;;;;;13.60;10.15;;;;;;;6.90;100.00;100825.59;5046308;28;20181;-74
2023/03/21 02:23:56;;;;;;;14.05;10.30;;;;;;;6.79;100.00;100833.31;5028780;28;20053;-74
2023/03/21 02:27:10;;;;;;;15.05;10.95;;;;;;;6.71;100.00;100830.44;5024851;28;20108;-74
2023/03/21 02:30:10;;;;;;;15.55;11.95;;;;;;;6.73;100.00;100825.97;5017164;28;20318;-74
2023/03/21 02:32:54;;;;;;;14.55;9.63;;;;;;;6.77;100.00;100821.41;5033741;28;20143;-74
2023/03/21 02:35:48;;;;;;;13.77;9.32;;;;;;;6.92;100.00;100823.72;5033074;28;20044;-73
2023/03/21 02:38:19;;;;;;;15.27;9.30;;;;;;;7.08;100.00;100823.41;5028351;28;20041;-74
2023/03/21 02:41:00;;;;;;;14.13;9.80;;;;;;;7.11;100.00;100827.50;5046061;28;20541;-74
2023/03/21 02:43:52;;;;;;;15.27;10.57;;;;;;;7.05;100.00;100820.22;5034516;28;20041;-74
2023/03/21 02:46:24;;;;;;;16.52;10.00;;;;;;;7.01;100.00;100814.44;5045512;28;20057;-74
2023/03/21 02:48:56;;;;;;;15.45;10.60;;;;;;;6.91;100.00;100806.50;5049299;28;20183;-74
2023/03/21 02:51:25;;;;;;;15.38;11.55;;;;;;;6.96;100.00;100804.41;5045296;28;20545;-74
2023/03/21 02:53:59;;;;;;;12.93;9.95;;;;;;;7.22;100.00;100807.66;5051785;28;20112;-75
2023/03/21 02:56:26;;;;;;;14.77;8.90;;;;;;;7.28;100.00;100801.19;5046785;28;20087;-74
2023/03/21 02:58:52;;;;;;;16.98;8.10;;;;;;;7.37;100.00;100803.09;5062870;28;20063;-74
2023/03/21 03:01:18;;;;;;;11.80;8.13;;;;;;;7.40;100.00;100807.22;5059949;28;20039;-74
2023/03/21 03:03:44;;;;;;;13.27;10.40;;;;;;;7.26;100.00;100803.06;5061834;28;20033;-74
2023/03/21 03:06:21;;;;;;;16.77;11.00;;;;;;;7.02;100.00;100808.31;5060022;28;20043;-74
2023/03/21 03:08:55;;;;;;;13.93;9.98;;;;;;;6.97;100.00;100800.88;5059013;28;20029;-74
2023/03/21 03:11:36;;;;;;;12.95;9.60;;;;;;;7.03;100.00;100804.78;5062983;28;20609;-74
2023/03/21 03:14:41;;;;;;;13.02;8.23;;;;;;;7.22;100.00;100799.03;5063384;28;20040;-73
2023/03/21 03:17:25;;;;;;;13.07;8.85;;;;;;;7.02;100.00;100797.97;5062249;28;20421;-74
2023/03/21 03:20:04;;;;;;;12.20;8.55;;;;;;;7.07;100.00;100802.81;5066496;28;20193;-74
2023/03/21 03:22:48;;;;;;;11.20;8.85;;;;;;;7.06;100.00;100801.16;5056697;28;20158;-74
2023/03/21 03:25:19;;;;;;;11.57;8.73;;;;;;;6.90;100.00;100802.28;5058652;28;20862;-73
2023/03/21 03:27:48;;;;;;;15.05;10.07;;;;;;;6.82;100.00;100794.22;5059417;28;20032;-74
2023/03/21 03:30:15;;;;;;;13.25;9.38;;;;;;;6.77;100.00;100798.09;5060375;28;21077;-74
2023/03/21 03:32:47;;;;;;;14.50;9.73;;;;;;;6.63;100.00;100797.31;5065008;28;20086;-74
2023/03/21 03:35:16;;;;;;;14.65;10.73;;;;;;;6.51;100.00;100789.63;5060621;28;20454;-74
2023/03/21 03:37:47;;;;;;;14.95;12.20;;;;;;;6.41;100.00;100792.06;5060750;28;20608;-74
2023/03/21 03:40:17;;;;;;;20.90;14.35;;;;;;;6.29;100.00;100785.16;5060227;28;20115;-74
2023/03/21 03:42:52;;;;;;;15.25;12.63;;;;;;;6.22;100.00;100782.19;5059250;28;20113;-74
2023/03/21 03:45:23;;;;;;;22.17;15.00;;;;;;;6.13;100.00;100780.28;5054978;28;20539;-74
2023/03/21 03:48:12;;;;;;;20.20;16.73;;;;;;;6.17;100.00;100786.84;5060777;28;20047;-74
2023/03/21 03:50:52;;;;;;;18.23;15.32;;;;;;;6.15;100.00;100788.72;5063481;28;20064;-73
2023/03/21 03:53:55;;;;;;;22.60;15.98;;;;;;;6.09;100.00;100790.94;5063603;28;20389;-74
2023/03/21 03:56:21;;;;;;;19.55;15.52;;;;;;;6.16;100.00;100786.97;5062710;28;20063;-74
2023/03/21 03:58:48;;;;;;;18.60;15.52;;;;;;;6.12;100.00;100785.56;5060086;28;20474;-74
2023/03/21 04:01:13;;;;;;;17.10;12.70;;;;;;;6.26;100.00;100787.97;5066313;28;20043;-74
2023/03/21 04:03:41;;;;;;;11.57;9.65;;;;;;;6.41;100.00;100792.06;5065398;28;20123;-73
2023/03/21 04:06:07;;;;;;;15.82;10.38;;;;;;;6.56;100.00;100785.78;5060221;28;20044;-74
2023/03/21 04:08:32;;;;;;;13.82;8.10;;;;;;;6.84;100.00;100789.75;5067907;28;20036;-73
2023/03/21 04:11:00;;;;;;;10.02;7.18;;;;;;;6.98;100.00;100792.16;5067294;28;20025;-74
2023/03/21 04:13:25;;;;;;;10.02;6.95;;;;;;;7.12;100.00;100803.25;5057955;28;20028;-73
2023/03/21 04:15:50;;;;;;;12.20;6.60;;;;;;;7.17;100.00;100801.16;5056243;28;20020;-74
2023/03/21 04:18:16;;;;;;;9.75;6.88;;;;;;;7.22;100.00;100794.69;5058655;28;20029;-73
2023/03/21 04:20:43;;;;;;;9.48;7.05;;;;;;;7.25;100.00;100804.81;5064332;28;20028;-72
2023/03/21 04:23:10;;;;;;;9.38;6.13;;;;;;;7.28;100.00;100803.78;5056364;28;20702;-72
2023/03/21 04:25:36;;;;;;;11.48;6.47;;;;;;;7.27;100.00;100796.94;5063161;28;20394;-72
2023/03/21 04:28:02;;;;;;;12.30;6.68;;;;;;;7.28;100.00;100803.78;5058485;28;20394;-72
2023/03/21 04:30:28;;;;;;;14.50;7.07;;;;;;;7.31;100.00;100799.19;5058450;28;20033;-72
2023/03/21 04:32:55;;;;;;;7.90;5.88;;;;;;;7.31;100.00;100791.41;5057049;28;20121;-72
2023/03/21 04:35:21;;;;;;;7.43;6.00;;;;;;;7.29;100.00;100788.09;5058758;28;20039;-72
2023/03/21 04:37:47;;;;;;;9.73;6.32;;;;;;;7.23;100.00;100800.69;5065427;28;20028;-72
2023/03/21 04:40:16;;;;;;;12.25;6.50;;;;;;;7.17;100.00;100785.59;5066523;28;20040;-72
2023/03/21 04:42:42;;;;;;;12.55;7.03;;;;;;;7.21;100.00;100789.63;5059661;28;20394;-72
2023/03/21 04:45:08;;;;;;;16.17;6.05;;;;;;;7.25;100.00;100788.44;5056543;28;20028;-72
2023/03/21 04:47:34;;;;;;;15.35;6.30;;;;;;;7.28;100.00;100788.22;5063433;28;20393;-72
2023/03/21 04:49:59;;;;;;;8.35;6.38;;;;;;;7.27;100.00;100791.75;5065984;28;20029;-73
2023/03/21 04:52:25;;;;;;;9.77;6.40;;;;;;;7.27;100.00;100802.13;5057384;28;20032;-72
2023/03/21 04:54:50;;;;;;;7.35;6.03;;;;;;;7.23;100.00;100806.72;5063461;28;20037;-72
2023/03/21 04:57:16;;;;;;;11.45;7.72;;;;;;;7.19;100.00;100805.28;5061816;28;20044;-72
2023/03/21 04:59:41;;;;;;;11.77;7.30;;;;;;;7.21;100.00;100806.00;5062482;28;20021;-72
2023/03/21 05:02:07;;;;;;;10.40;7.20;;;;;;;7.19;100.00;100809.63;5057988;28;20357;-72
2023/03/21 05:04:32;;;;;;;11.43;7.63;;;;;;;7.12;100.00;100806.66;5065360;28;20478;-73
2023/03/21 05:06:58;;;;;;;10.90;8.00;;;;;;;7.09;100.00;100809.50;5061580;28;20474;-73
2023/03/21 05:09:24;;;;;;;12.82;6.93;;;;;;;7.03;100.00;100819.50;5064811;28;20488;-73
2023/03/21 05:11:50;;;;;;;11.68;7.55;;;;;;;6.95;100.00;100817.47;5066577;28;20067;-72
2023/03/21 05:14:24;;;;;;;10.05;7.60;;;;;;;6.92;100.00;100808.16;5062077;28;20056;-72
2023/03/21 05:16:55;;;;;;;11.68;7.55;;;;;;;6.95;100.00;100812.28;5061216;28;20040;-72
2023/03/21 05:19:33;;;;;;;11.77;7.40;;;;;;;6.96;100.00;100814.78;5055571;28;20040;-72
2023/03/21 05:22:10;;;;;;;10.75;7.20;;;;;;;7.01;100.00;100811.84;5059078;28;20114;-74
2023/03/21 05:24:38;;;;;;;8.73;6.90;;;;;;;7.09;100.00;100824.25;5065134;28;20095;-73
2023/03/21 05:27:04;;;;;;;9.27;6.53;;;;;;;7.19;100.00;100817.41;5057501;28;20413;-73
2023/03/21 05:29:31;;;;;;;9.27;6.75;;;;;;;7.22;100.00;100827.56;5063141;28;20127;-72
2023/03/21 05:31:58;;;;;;;8.10;5.80;;;;;;;7.23;100.00;100826.59;5056065;28;20119;-73
2023/03/21 05:34:24;;;;;;;8.57;5.95;;;;;;;7.20;100.00;100827.66;5063758;28;20120;-72
2023/03/21 05:36:50;;;;;;;14.68;6.45;;;;;;;7.22;100.00;100835.31;5060195;28;20387;-72
2023/03/21 05:39:15;;;;;;;10.80;6.10;;;;;;;7.19;100.00;100830.38;5063329;28;20032;-72
2023/03/21 05:41:40;;;;;;;9.27;7.13;;;;;;;7.19;100.00;100833.78;5058901;28;20028;-72
2023/03/21 05:44:06;;;;;;;11.43;7.22;;;;;;;7.20;100.00;100837.22;5062340;28;20115;-74
2023/03/21 05:46:31;;;;;;;15.40;7.28;;;;;;;7.22;100.00;100843.94;5058644;28;20032;-73
2023/03/21 05:48:57;;;;;;;9.63;6.88;;;;;;;7.28;100.00;100840.06;5060065;28;20036;-74
2023/03/21 05:51:22;;;;;;;9.05;6.57;;;;;;;7.31;100.00;100847.59;5056456;28;20036;-75
2023/03/21 05:53:48;;;;;;;11.60;6.88;;;;;;;7.30;100.00;100848.53;5063207;28;20060;-74
2023/03/21 05:56:13;;;;;;;10.02;6.93;;;;;;;7.34;100.00;100844.78;5063210;28;20059;-72
2023/03/21 05:58:39;;;;;;;9.52;6.70;;;;;;;7.41;100.00;100853.75;5058711;28;20406;-73
2023/03/21 06:01:05;;;;;;;9.30;6.25;;;;;;;7.50;100.00;100854.84;5058754;28;20032;-75
2023/03/21 06:03:30;;;;;;;10.20;6.10;;;;;;;7.56;100.00;100850.00;5056674;28;20462;-75
2023/03/21 06:05:56;;;;;;;6.10;5.43;;;;;;;7.60;100.00;100856.59;5060902;28;20021;-75
2023/03/21 06:08:21;;;;;;;15.60;5.90;;;;;;;7.65;100.00;100864.88;5061020;28;20036;-74
2023/03/21 06:10:47;;;;;;;8.30;5.43;;;;;;;7.72;100.00;100854.03;5056265;28;21453;-74
2023/03/21 06:13:12;;;;;;;8.57;5.25;;;;;;;7.72;100.00;100856.63;5061319;28;20032;-74
2023/03/21 06:15:38;;;;;;;11.50;7.50;;;;;;;7.76;100.00;100852.84;5059510;28;20517;-76
2023/03/21 06:18:03;;;;;;;11.32;6.65;;;;;;;7.72;100.00;100859.22;5064289;28;20485;-74
2023/03/21 06:20:29;;;;;;;8.05;5.68;;;;;;;7.78;100.00;100856.16;5061343;28;20367;-74
2023/03/21 06:22:54;;;;;;;9.45;5.18;;;;;;;7.88;100.00;100859.72;5062690;28;20055;-74
2023/03/21 06:25:20;;;;;;;9.38;6.85;;;;;;;7.90;100.00;100855.22;5065427;28;20089;-74
2023/03/21 06:27:46;;;;;;;11.68;6.32;;;;;;;7.94;100.00;100861.84;5061633;28;20024;-73
2023/03/21 06:30:12;;;;;;;12.57;6.32;;;;;;;8.01;100.00;100862.19;5056540;28;20028;-75
2023/03/21 06:32:38;;;;;;;18.98;6.55;;;;;;;8.03;100.00;100863.72;5066174;28;20074;-74
2023/03/21 06:35:04;;;;;;;18.85;7.22;;;;;;;8.07;100.00;100856.50;5058633;28;20081;-74
2023/03/21 06:37:30;;;;;;;10.98;6.00;;;;;;;8.18;99.98;100857.31;5061194;28;20350;-75
2023/03/21 06:39:55;;;;;;;8.70;5.60;;;;;;;8.37;99.02;100853.31;5055409;28;20063;-76
2023/03/21 06:42:20;;;;;;;8.90;6.15;;;;;;;8.55;98.35;100854.44;5064686;28;20036;-75
2023/03/21 06:44:46;;;;;;;9.48;5.57;;;;;;;8.69;96.86;100848.16;5067058;28;20032;-74
2023/03/21 06:47:11;;;;;;;9.10;4.85;;;;;;;8.81;95.10;100840.22;5060149;28;20039;-75
2023/03/21 06:49:37;;;;;;;7.80;5.05;;;;;;;8.90;94.14;100855.06;5061946;28;20032;-74
2023/03/21 06:52:02;;;;;;;9.10;5.75;;;;;;;9.08;94.35;100849.28;5067728;28;20039;-75
2023/03/21 06:54:28;;;;;;;21.30;9.70;;;;;;;9.24;92.48;100852.28;5071013;28;20366;-75
2023/03/21 06:56:54;;;;;;;30.40;11.65;;;;;;;9.41;92.75;100854.34;5069027;28;20036;-74
2023/03/21 06:59:20;;;;;;;16.15;6.78;;;;;;;9.57;92.06;100854.69;5065399;28;20503;-75
2023/03/21 07:01:46;;;;;;;8.45;5.20;;;;;;;9.71;91.05;100850.09;5058732;28;20061;-74
2023/03/21 07:04:11;;;;;;;11.73;5.78;;;;;;;9.92;90.90;100856.09;5059373;28;20115;-74
2023/03/21 07:06:37;;;;;;;10.35;5.57;;;;;;;9.96;89.75;100854.84;5057948;28;20037;-74
2023/03/21 07:09:04;;;;;;;14.90;5.50;;;;;;;10.10;90.11;100845.88;5061603;28;20036;-74
2023/03/21 07:11:30;;;;;;;9.25;5.80;;;;;;;10.21;89.57;100849.22;5057260;28;22011;-74
2023/03/21 07:13:56;;;;;;;12.10;5.80;;;;;;;10.31;88.17;100849.25;5059005;28;20620;-76
2023/03/21 07:16:23;;;;;;;11.30;5.88;;;;;;;10.38;88.42;100854.78;5057909;28;20032;-77
2023/03/21 07:18:49;;;;;;;19.90;6.97;;;;;;;10.57;87.43;100850.41;5061646;28;20064;-74
2023/03/21 07:21:15;;;;;;;9.52;5.60;;;;;;;10.68;86.58;100851.25;5051497;28;20036;-74
2023/03/21 07:23:41;;;;;;;11.68;5.82;;;;;;;10.80;85.80;100850.16;5057629;28;20052;-74
2023/03/21 07:26:07;;;;;;;13.10;5.63;;;;;;;10.77;85.48;100861.69;5063790;28;20094;-74
2023/03/21 07:28:33;;;;;;;12.80;5.50;;;;;;;10.77;85.05;100856.47;5059899;28;20081;-76
2023/03/21 07:31:03;;;;;;;10.52;5.07;;;;;;;10.83;83.90;100849.88;5060237;28;20033;-75
2023/03/21 07:33:29;;;;;;;8.32;4.93;;;;;;;11.01;82.97;100857.81;5065622;28;20113;-75
2023/03/21 07:35:56;;;;;;;12.35;5.60;;;;;;;11.18;83.00;100852.75;5060155;28;20548;-75
2023/03/21 07:38:22;;;;;;;13.85;4.90;;;;;;;11.63;79.30;100858.16;5062162;28;20435;-73
2023/03/21 07:40:49;;;;;;;7.97;4.95;;;;;;;12.09;78.40;100858.28;5062185;28;20033;-77
2023/03/21 07:43:15;;;;;;;6.85;4.90;;;;;;;12.23;77.29;100863.84;5059612;28;20044;-78
2023/03/21 07:45:41;;;;;;;5.95;4.20;;;;;;;12.20;77.55;100858.09;5062017;28;20029;-78
2023/03/21 07:48:08;;;;;;;11.45;4.72;;;;;;;12.02;78.32;100860.63;5057927;28;20039;-78
2023/03/21 07:50:33;;;;;;;8.98;3.67;;;;;;;11.97;78.16;100852.41;5063718;28;20063;-78
2023/03/21 07:52:59;;;;;;;8.48;3.70;;;;;;;12.06;77.97;100853.34;5060307;28;20464;-78
2023/03/21 07:55:25;;;;;;;5.50;4.00;;;;;;;12.19;77.65;100849.44;5065401;28;20040;-77
2023/03/21 07:57:51;;;;;;;7.57;4.25;;;;;;;12.30;78.00;100854.44;5057821;28;20324;-79
2023/03/21 08:00:21;;;;;;;7.00;4.07;;;;;;;12.35;76.95;100850.56;5057987;28;20127;-78
2023/03/21 08:02:54;;;;;;;6.90;3.95;;;;;;;12.52;75.51;100853.22;5061304;28;20064;-78
2023/03/21 08:05:33;;;;;;;10.38;4.07;;;;;;;12.65;72.97;100852.84;5057499;28;20029;-78
2023/03/21 08:07:59;;;;;;;6.50;3.40;;;;;;;12.82;75.13;100852.03;5058734;28;20086;-77
2023/03/21 08:10:25;;;;;;;5.80;3.35;;;;;;;13.03;73.54;100851.72;5058788;28;20054;-72
2023/03/21 08:12:51;;;;;;;7.70;3.67;;;;;;;13.20;72.59;100853.53;5057997;28;20032;-78
2023/03/21 08:15:17;;;;;;;15.63;3.97;;;;;;;13.33;72.85;100847.88;5054541;28;20057;-77
2023/03/21 08:17:44;;;;;;;10.07;3.72;;;;;;;13.42;72.52;100849.59;5057674;28;20033;-78
2023/03/21 08:20:14;;;;;;;6.35;3.55;;;;;;;13.65;71.96;100851.69;5055304;28;20039;-77
2023/03/21 08:22:42;;;;;;;8.48;2.97;;;;;;;13.75;71.73;100852.38;5057350;28;20045;-76
2023/03/21 08:25:09;;;;;;;6.50;3.10;;;;;;;13.74;69.29;100850.75;5059164;28;20037;-77
2023/03/21 08:27:35;;;;;;;8.82;3.20;;;;;;;13.93;70.89;100848.72;5058929;28;20029;-73
2023/03/21 08:30:00;;;;;;;13.68;3.95;;;;;;;14.38;69.03;100847.56;5056452;28;20086;-73
2023/03/21 08:32:30;;;;;;;9.18;2.97;;;;;;;14.40;69.35;100842.16;5054369;28;20036;-72
2023/03/21 08:35:00;;;;;;;6.57;2.75;;;;;;;14.50;67.88;100845.50;5057564;28;20040;-73
2023/03/21 08:37:27;;;;;;;9.25;2.72;;;;;;;14.44;68.01;100838.28;5060573;28;20032;-73
2023/03/21 08:39:52;;;;;;;7.50;2.28;;;;;;;14.58;68.51;100835.03;5060450;28;20169;-77
2023/03/21 08:42:18;;;;;;;13.85;2.72;;;;;;;15.00;66.26;100828.84;5055439;28;21133;-76
2023/03/21 08:44:44;;;;;;;9.63;2.78;;;;;;;15.38;64.99;100822.88;5056557;28;20103;-77
2023/03/21 08:47:10;;;;;;;14.73;3.78;;;;;;;15.99;63.38;100829.31;5056178;28;20427;-77
2023/03/21 08:49:36;;;;;;;10.77;2.45;;;;;;;16.60;61.32;100825.00;5060022;28;20054;-73
2023/03/21 08:52:01;;;;;;;7.82;3.20;;;;;;;17.17;59.22;100825.41;5074148;28;20058;-74
2023/03/21 08:54:27;;;;;;;7.60;2.40;;;;;;;17.65;57.42;100819.81;5074018;28;20119;-73
2023/03/21 08:56:53;;;;;;;4.95;2.30;;;;;;;18.44;56.25;100812.88;5071563;28;21220;-73
2023/03/21 08:59:18;;;;;;;4.63;2.25;;;;;;;18.63;53.05;100812.28;5067510;28;20031;-73
2023/03/21 09:01:44;;;;;;;6.95;2.78;;;;;;;19.37;52.50;100809.25;5072923;28;20058;-73
2023/03/21 09:04:10;;;;;;;5.78;2.55;;;;;;;19.64;50.99;100810.22;5069755;28;20032;-73
2023/03/21 09:06:46;;;;;;;5.45;2.47;;;;;;;19.87;50.65;100802.78;5064580;28;20028;-73
2023/03/21 09:09:13;;;;;;;7.40;3.05;;;;;;;19.61;51.53;100800.84;5063473;28;20493;-73
2023/03/21 09:11:38;;;;;;;6.80;2.40;;;;;;;19.03;52.61;100797.59;5062507;28;20509;-74
2023/03/21 09:14:04;;;;;;;9.40;2.42;;;;;;;17.80;56.70;100805.66;5064973;28;20119;-72
2023/03/21 09:16:30;;;;;;;11.23;2.90;;;;;;;16.62;59.97;100801.16;5061902;28;20024;-72
2023/03/21 09:18:58;;;;;;;9.02;2.85;;;;;;;16.06;61.78;100801.34;5060599;28;20146;-72
2023/03/21 09:21:25;;;;;;;6.82;2.10;;;;;;;15.69;62.70;100799.34;5063868;28;20034;-76
2023/03/21 09:23:53;;;;;;;3.97;1.83;;;;;;;15.58;61.88;100802.38;5074885;28;20044;-77
2023/03/21 09:26:19;;;;;;;4.45;1.90;;;;;;;15.51;62.23;100811.88;5063951;28;20064;-76
2023/03/21 09:28:47;;;;;;;10.70;2.60;;;;;;;15.44;63.29;100806.47;5067243;28;20039;-75
2023/03/21 09:31:15;;;;;;;6.53;1.75;;;;;;;15.42;62.40;100805.00;5059483;28;20028;-75
2023/03/21 09:33:42;;;;;;;4.60;1.10;;;;;;;15.51;62.36;100804.00;5063861;28;20021;-76
2023/03/21 09:36:12;;;;;;;4.93;1.52;;;;;;;15.40;62.66;100799.09;5065737;28;20111;-76
2023/03/21 09:38:44;;;;;;;5.10;1.63;;;;;;;15.33;63.46;100801.56;5059873;28;20033;-73
2023/03/21 09:41:27;;;;;;;6.18;1.20;;;;;;;15.24;62.81;100799.94;5053685;28;20025;-72
2023/03/21 09:44:24;;;;;;;5.50;1.48;;;;;;;15.32;62.65;100802.56;5066516;28;20032;-72
2023/03/21 09:47:19;;;;;;;2.63;1.10;;;;;;;15.39;64.05;100793.03;5057698;28;20765;-71
2023/03/21 09:49:50;;;;;;;6.32;0.90;;;;;;;15.34;65.16;100797.94;5061060;28;20039;-72
2023/03/21 09:52:42;;;;;;;3.80;1.17;;;;;;;15.32;63.45;100799.94;5054982;28;20048;-72
2023/03/21 09:55:29;;;;;;;6.20;1.25;;;;;;;15.31;63.72;100793.03;5057974;28;20513;-71
2023/03/21 09:58:03;;;;;;;3.75;1.30;;;;;;;15.29;63.45;100792.38;5056270;28;20040;-71
2023/03/21 10:00:44;;;;;;;2.13;1.38;;;;;;;15.45;63.70;100786.28;5056148;28;20046;-72
2023/03/21 10:03:25;;;;;;;4.35;1.40;;;;;;;15.44;62.75;100782.84;5053840;28;20164;-71
2023/03/21 10:05:57;;;;;;;3.95;1.15;;;;;;;15.54;63.26;100772.97;5054175;28;20036;-72
2023/03/21 10:08:33;;;;;;;6.18;1.48;;;;;;;15.62;62.68;100776.56;5057756;28;20044;-73
2023/03/21 10:11:06;;;;;;;;;;;;;;;15.74;60.59;100783.09;5054673;28;20886;-72
2023/03/21 10:13:34;;;;;;;2.17;0.70;;;;;;;15.81;63.63;100779.59;5061383;28;19912;-72
2023/03/21 10:16:12;;;;;;;4.68;0.70;;;;;;;15.94;62.25;100776.44;5070613;28;20455;-72
2023/03/21 10:18:39;;;;;;;8.20;4.40;;;;;;;15.91;60.09;100771.53;5061896;28;20032;-72
2023/03/21 10:21:05;;;;;;;2.15;0.68;;;;;;;16.02;59.70;100763.25;5065636;28;20028;-70
2023/03/21 10:23:31;;;;;;;5.07;1.13;;;;;;;16.12;59.37;100765.66;5067177;28;20037;-69
2023/03/21 10:26:00;;;;;;;4.63;0.70;;;;;;;16.23;59.50;100758.19;5067823;28;20094;-69
2023/03/21 10:28:31;;;;;;;2.10;0.70;;;;;;;16.31;59.47;100753.88;5068934;28;20051;-71
2023/03/21 10:31:01;;;;;;;1.60;1.17;;;;;;;16.26;59.20;100757.84;5063907;28;20032;-71
2023/03/21 10:33:41;;;;;;;3.22;0.70;;;;;;;16.25;56.88;100752.75;5063829;28;20028;-71
2023/03/21 10:36:28;;;;;;;4.25;1.42;;;;;;;16.12;56.74;100753.31;5066888;28;20079;-71
2023/03/21 10:39:17;;;;;;;1.50;0.70;;;;;;;15.97;59.20;100744.56;5068865;28;20036;-71
2023/03/21 10:41:42;;;;;;;1.30;0.70;;;;;;;15.97;60.26;100741.94;5061655;28;20513;-71
2023/03/21 10:44:16;;;;;;;3.50;0.82;;;;;;;16.10;59.98;100743.97;5072253;28;20041;-71
2023/03/21 10:47:03;;;;;;;3.17;1.02;;;;;;;16.15;59.04;100731.94;5064945;28;20025;-71
2023/03/21 10:49:30;;;;;;;2.30;1.00;;;;;;;16.32;60.05;100730.03;5064429;28;20040;-71
2023/03/21 10:52:03;;;;;;;2.85;0.93;;;;;;;16.34;59.90;100725.44;5066300;28;20470;-71
2023/03/21 10:54:31;;;;;;;1.95;0.88;;;;;;;16.24;60.39;100724.84;5070040;28;20047;-71
2023/03/21 10:57:01;;;;;;;2.03;0.85;;;;;;;16.18;59.99;100726.34;5071586;28;20032;-71
2023/03/21 10:59:35;;;;;;;3.25;0.75;;;;;;;16.16;58.94;100730.97;5068316;28;20036;-71
2023/03/21 11:02:03;;;;;;;2.38;0.70;;;;;;;16.35;58.55;100721.81;5065245;28;20032;-72
2023/03/21 11:04:29;;;;;;;2.40;0.60;;;;;;;16.46;57.96;100717.94;5064190;28;20028;-71
2023/03/21 11:07:02;;;;;;;4.25;1.65;;;;;;;16.56;57.32;100721.13;5066248;28;20052;-71
2023/03/21 11:09:47;;;;;;;2.83;0.63;;;;;;;16.67;55.90;100727.81;5064461;28;20060;-72
2023/03/21 11:12:26;;;;;;;0.95;0.73;;;;;;;16.58;56.95;100719.97;5059624;28;20032;-72
2023/03/21 11:14:52;;;;;;;1.92;0.65;;;;;;;16.74;55.37;100712.97;5067039;28;20056;-73
2023/03/21 11:17:22;;;;;;;1.70;0.75;;;;;;;16.91;55.66;100712.63;5062484;28;20021;-72
2023/03/21 11:20:05;;;;;;;1.67;0.40;;;;;;;16.96;56.23;100708.66;5067510;28;20033;-73
2023/03/21 11:22:39;;;;;;;2.42;0.60;;;;;;;16.88;55.77;100707.72;5059461;28;20194;-72
2023/03/21 11:25:08;;;;;;;1.52;0.50;;;;;;;16.88;55.87;100704.28;5064182;28;20029;-72
2023/03/21 11:27:34;;;;;;;3.10;0.68;;;;;;;16.96;53.47;100698.94;5061286;28;20036;-73
2023/03/21 11:30:03;;;;;;;1.60;0.57;;;;;;;17.06;53.87;100690.75;5058089;28;20032;-72
2023/03/21 11:32:33;;;;;;;3.70;0.60;;;;;;;17.11;54.82;100693.66;5059663;28;20037;-72